Friday, October 20, 2017, 9:25 PM EDT
Back to Local

KACK, Nantucket Memorial Airport

Location: Nantucket, MA, United States Lat: 41.25
Local Time: 9:25 PM EDT ( 1:25 GMT) Lon: -70.067
Time Zone: US/Eastern Elev: 49 ft

Show me the last for .
Show Decoded

2017-10-20 20:53 METAR KACK 210053Z 29007KT 10SM CLR 14/11 A3008 RMK AO2 SLP186 T01390106 =
2017-10-20 19:53 METAR KACK 202353Z 28006KT 10SM CLR 14/12 A3006 RMK AO2 SLP179 T01390117 10200
                 20139 53015 =
2017-10-20 18:53 METAR KACK 202253Z 28005KT 10SM CLR 14/12 A3004 RMK AO2 SLP173 T01390122 =
2017-10-20 17:53 METAR KACK 202153Z 27005KT 10SM CLR 15/12 A3003 RMK AO2 SLP169 T01500122 =
2017-10-20 16:53 METAR KACK 202053Z 26010KT 10SM CLR 18/10 A3002 RMK AO2 SLP164 T01780100 53005 =
2017-10-20 15:53 METAR KACK 201953Z 31010KT 10SM CLR 20/07 A3000 RMK AO2 SLP158 T02000072 =
2017-10-20 14:53 METAR KACK 201853Z 30011KT 10SM CLR 19/08 A3000 RMK AO2 SLP159 T01940078 =
2017-10-20 13:53 METAR KACK 201753Z 31010KT 10SM CLR 20/08 A3000 RMK AO2 SLP159 T02000083 10200
                 20161 58015 =
2017-10-20 12:53 METAR KACK 201653Z 32009KT 10SM CLR 19/09 A3002 RMK AO2 SLP165 T01940089 =
2017-10-20 11:53 METAR KACK 201553Z 32011KT 10SM CLR 19/09 A3004 RMK AO2 SLP172 T01890089 =
2017-10-20 10:53 METAR KACK 201453Z 33012KT 10SM CLR 18/09 A3005 RMK AO2 SLP175 T01830094 50009 =
2017-10-20 09:53 METAR KACK 201353Z 32012KT 10SM CLR 18/11 A3005 RMK AO2 SLP176 T01830111 =
2017-10-20 08:53 METAR KACK 201253Z 30011KT 10SM CLR 17/12 A3004 RMK AO2 SLP173 T01720117 =
2017-10-20 07:53 METAR KACK 201153Z 31008KT 10SM CLR 16/12 A3002 RMK AO2 SLP166 T01560117 10161
                 20144 53004 =
2017-10-20 06:53 METAR KACK 201053Z 28008KT 10SM CLR 15/13 A3001 RMK AO2 SLP163 T01500133 =
2017-10-20 05:53 METAR KACK 200953Z 26009KT 10SM CLR 16/16 A3000 RMK AO2 SLP160 T01560156 =
2017-10-20 04:53 METAR KACK 200853Z AUTO 25012KT 10SM CLR 16/16 A3001 RMK AO2 SLP162 T01610156
                 56009 TSNO =
2017-10-20 03:53 METAR KACK 200753Z AUTO 24013KT 10SM CLR 16/16 A3001 RMK AO2 SLP162 T01610156
                 TSNO =
2017-10-20 02:53 METAR KACK 200653Z AUTO 23013KT 10SM CLR 16/16 A3002 RMK AO2 SLP165 T01560156
                 TSNO =
2017-10-20 01:53 METAR KACK 200553Z AUTO 24016KT 10SM CLR 16/15 A3004 RMK AO2 SLP171 T01560150
                 10156 20156 58012 TSNO =
2017-10-20 00:53 METAR KACK 200453Z AUTO 23017G22KT 10SM CLR 16/14 A3006 RMK AO2 SLP179 T01560144
                 401830122 TSNO =
2017-10-19 23:53 METAR KACK 200353Z AUTO 24017KT 10SM CLR 16/14 A3006 RMK AO2 SLP180 T01560144
                 TSNO =
2017-10-19 22:53 METAR KACK 200253Z AUTO 22014KT 10SM CLR 16/14 A3007 RMK AO2 SLP183 T01560144
                 55008 TSNO =
2017-10-19 21:53 METAR KACK 200153Z AUTO 21016KT 10SM CLR 16/15 A3007 RMK AO2 SLP181 T01560150
                 TSNO =

Support USWX by starting your Amazon purchase here.